createdAt,value
2023-03-04T00:00:29.301Z,5.80
2023-03-04T00:02:58.243Z,5.80
2023-03-04T00:05:27.373Z,5.80
2023-03-04T00:08:00.677Z,5.80
2023-03-04T00:10:35.098Z,5.80
2023-03-04T00:13:05.679Z,5.80
2023-03-04T00:15:35.967Z,5.80
2023-03-04T00:18:05.146Z,5.80
2023-03-04T00:20:38.132Z,5.80
2023-03-04T00:23:07.072Z,5.80
2023-03-04T00:25:36.077Z,5.80
2023-03-04T00:28:06.127Z,5.70
2023-03-04T00:30:45.460Z,5.70
2023-03-04T00:33:14.343Z,5.70
2023-03-04T00:35:46.813Z,5.70
2023-03-04T00:38:18.941Z,5.70
2023-03-04T00:40:50.876Z,5.70
2023-03-04T00:43:21.168Z,5.70
2023-03-04T00:45:51.991Z,5.70
2023-03-04T00:48:20.809Z,5.70
2023-03-04T00:50:54.048Z,5.70
2023-03-04T00:53:26.899Z,5.70
2023-03-04T00:55:55.945Z,5.70
2023-03-04T00:58:27.129Z,5.70
2023-03-04T01:01:01.018Z,5.70
2023-03-04T01:03:32.896Z,5.70
2023-03-04T01:06:06.804Z,5.70
2023-03-04T01:08:35.693Z,5.70
2023-03-04T01:11:06.767Z,5.70
2023-03-04T01:13:36.444Z,5.70
2023-03-04T01:16:07.799Z,5.70
2023-03-04T01:18:36.664Z,5.70
2023-03-04T01:21:11.603Z,5.70
2023-03-04T01:23:41.957Z,5.70
2023-03-04T01:26:13.600Z,5.70
2023-03-04T01:28:44.371Z,5.70
2023-03-04T01:31:16.739Z,5.70
2023-03-04T01:33:48.450Z,5.70
2023-03-04T01:36:17.252Z,5.70
2023-03-04T01:38:47.551Z,5.70
2023-03-04T01:41:19.299Z,5.70
2023-03-04T01:43:52.280Z,5.70
2023-03-04T01:46:24.928Z,5.60
2023-03-04T01:48:57.025Z,5.70
2023-03-04T01:51:27.885Z,5.70
2023-03-04T01:53:58.953Z,5.60
2023-03-04T01:56:30.864Z,5.60
2023-03-04T01:59:14.140Z,5.60
2023-03-04T02:01:46.566Z,5.70
2023-03-04T02:04:17.266Z,5.60
2023-03-04T02:06:56.452Z,5.60
2023-03-04T02:09:36.702Z,5.70
2023-03-04T02:12:08.557Z,5.60
2023-03-04T02:14:46.387Z,5.70
2023-03-04T02:17:19.144Z,5.60
2023-03-04T02:19:55.219Z,5.70
2023-03-04T02:22:24.397Z,5.70
2023-03-04T02:25:01.947Z,5.70
2023-03-04T02:27:34.072Z,5.60
2023-03-04T02:30:03.185Z,5.60
2023-03-04T02:32:35.186Z,5.60
2023-03-04T02:35:05.423Z,5.60
2023-03-04T02:37:37.201Z,5.60
2023-03-04T02:40:08.560Z,5.60
2023-03-04T02:42:44.801Z,5.60
2023-03-04T02:45:49.860Z,5.50
2023-03-04T02:48:29.072Z,5.60
2023-03-04T02:51:13.815Z,5.60
2023-03-04T02:53:44.796Z,5.50
2023-03-04T02:56:16.198Z,5.60
2023-03-04T02:58:57.108Z,5.50
2023-03-04T03:01:30.323Z,5.60
2023-03-04T03:04:01.993Z,5.60
2023-03-04T03:06:37.136Z,5.60
2023-03-04T03:09:10.932Z,5.60
2023-03-04T03:11:44.940Z,5.60
2023-03-04T03:17:14.263Z,5.60
2023-03-04T03:19:53.647Z,5.60
2023-03-04T03:22:32.515Z,5.60
2023-03-04T03:25:03.873Z,5.60
2023-03-04T03:27:35.942Z,5.50
2023-03-04T03:30:15.636Z,5.60
2023-03-04T03:32:54.648Z,5.60
2023-03-04T03:35:29.520Z,5.60
2023-03-04T03:37:58.388Z,5.60
2023-03-04T03:40:27.337Z,5.60
2023-03-04T03:42:58.678Z,5.60
2023-03-04T03:45:31.339Z,5.60
2023-03-04T03:48:00.167Z,5.60
2023-03-04T03:50:30.644Z,5.50
2023-03-04T03:53:02.206Z,5.60
2023-03-04T03:55:33.272Z,5.60
2023-03-04T03:58:02.471Z,5.50
2023-03-04T04:00:34.712Z,5.60
2023-03-04T04:03:08.313Z,5.60
2023-03-04T04:05:43.566Z,5.60
2023-03-04T04:08:15.776Z,5.60
2023-03-04T04:10:58.632Z,5.60
2023-03-04T04:13:27.700Z,5.60
2023-03-04T04:16:01.212Z,5.60
2023-03-04T04:18:30.385Z,5.60
2023-03-04T04:20:59.595Z,5.60
2023-03-04T04:23:29.640Z,5.60
2023-03-04T04:25:59.460Z,5.60
2023-03-04T04:28:30.448Z,5.60
2023-03-04T04:31:04.208Z,5.60
2023-03-04T04:33:36.299Z,5.60
2023-03-04T04:36:07.591Z,5.60
2023-03-04T04:38:36.460Z,5.60
2023-03-04T04:41:09.301Z,5.60
2023-03-04T04:43:38.410Z,5.50
2023-03-04T04:46:10.461Z,5.60
2023-03-04T04:48:39.574Z,5.50
2023-03-04T04:51:10.899Z,5.50
2023-03-04T04:53:40.126Z,5.50
2023-03-04T04:56:24.955Z,5.50
2023-03-04T04:58:54.924Z,5.50
2023-03-04T05:01:29.606Z,5.50
2023-03-04T05:04:00.665Z,5.50
2023-03-04T05:06:29.891Z,5.50
2023-03-04T05:08:59.155Z,5.40
2023-03-04T05:11:28.665Z,5.50
2023-03-04T05:13:57.899Z,5.40
2023-03-04T05:16:37.312Z,5.40
2023-03-04T05:19:11.497Z,5.40
2023-03-04T05:21:40.437Z,5.40
2023-03-04T05:24:14.091Z,5.40
2023-03-04T05:26:48.834Z,5.40
2023-03-04T05:29:17.718Z,5.50
2023-03-04T05:31:49.182Z,5.40
2023-03-04T05:34:23.427Z,5.40
2023-03-04T05:36:52.963Z,5.40
2023-03-04T05:39:22.109Z,5.40
2023-03-04T05:42:00.723Z,5.40
2023-03-04T05:44:29.944Z,5.50
2023-03-04T05:47:06.557Z,5.40
2023-03-04T05:49:49.133Z,5.40
2023-03-04T05:52:19.072Z,5.40
2023-03-04T05:54:58.609Z,5.50
2023-03-04T05:57:28.146Z,5.50
2023-03-04T06:00:05.561Z,5.50
2023-03-04T06:02:43.548Z,5.40
2023-03-04T06:05:19.301Z,5.50
2023-03-04T06:07:54.585Z,5.50
2023-03-04T06:10:26.908Z,5.50
2023-03-04T06:12:57.523Z,5.50
2023-03-04T06:15:26.654Z,5.50
2023-03-04T06:17:59.245Z,5.50
2023-03-04T06:20:28.505Z,5.50
2023-03-04T06:23:00.149Z,5.50
2023-03-04T06:25:34.360Z,5.50
2023-03-04T06:28:12.389Z,5.50
2023-03-04T06:30:53.225Z,5.50
2023-03-04T06:33:26.837Z,5.50
2023-03-04T06:35:56.572Z,5.50
2023-03-04T06:38:29.113Z,5.50
2023-03-04T06:40:58.045Z,5.50
2023-03-04T06:43:26.873Z,5.50
2023-03-04T06:45:57.316Z,5.50
2023-03-04T06:48:27.575Z,5.50
2023-03-04T06:50:56.375Z,5.50
2023-03-04T06:53:25.331Z,5.30
2023-03-04T06:55:54.102Z,5.30
2023-03-04T06:58:23.196Z,5.30
2023-03-04T07:00:52.009Z,5.40
2023-03-04T07:03:20.799Z,5.50
2023-03-04T07:05:51.755Z,5.50
2023-03-04T07:08:22.090Z,5.60
2023-03-04T07:10:51.646Z,5.60
2023-03-04T07:13:20.877Z,5.70
2023-03-04T07:15:49.923Z,5.70
2023-03-04T07:18:19.235Z,5.80
2023-03-04T07:20:48.340Z,5.80
2023-03-04T07:23:20.889Z,5.80
2023-03-04T07:25:54.894Z,5.90
2023-03-04T07:28:24.017Z,5.90
2023-03-04T07:30:53.512Z,5.90
2023-03-04T07:33:24.894Z,5.90
2023-03-04T07:36:02.121Z,5.90
2023-03-04T07:38:33.333Z,6.00
2023-03-04T07:41:08.606Z,6.00
2023-03-04T07:43:42.725Z,6.10
2023-03-04T07:46:19.106Z,6.10
2023-03-04T07:48:48.316Z,6.20
2023-03-04T07:51:19.526Z,6.30
2023-03-04T07:53:52.176Z,6.30
2023-03-04T07:56:23.587Z,6.40
2023-03-04T07:58:56.286Z,6.40
2023-03-04T08:01:29.249Z,6.40
2023-03-04T08:03:58.881Z,6.40
2023-03-04T08:06:31.360Z,6.40
2023-03-04T08:09:06.815Z,6.50
2023-03-04T08:11:38.429Z,6.50
2023-03-04T08:14:14.279Z,6.50
2023-03-04T08:16:47.141Z,6.50
2023-03-04T08:19:17.487Z,6.60
2023-03-04T08:21:54.263Z,6.70
2023-03-04T08:24:25.473Z,6.90
2023-03-04T08:26:56.281Z,6.90
2023-03-04T08:29:28.891Z,7.00
2023-03-04T08:31:57.884Z,6.90
2023-03-04T08:34:28.936Z,7.00
2023-03-04T08:36:57.742Z,7.00
2023-03-04T08:39:27.847Z,7.00
2023-03-04T08:41:56.492Z,7.00
2023-03-04T08:44:26.768Z,7.00
2023-03-04T08:46:55.534Z,7.10
2023-03-04T08:49:24.707Z,7.20
2023-03-04T08:51:56.540Z,7.30
2023-03-04T08:54:25.422Z,7.40
2023-03-04T08:56:58.834Z,7.50
2023-03-04T08:59:27.858Z,7.50
2023-03-04T09:01:56.873Z,7.50
2023-03-04T09:04:25.651Z,7.40
2023-03-04T09:06:55.435Z,7.40
2023-03-04T09:09:24.096Z,7.50
2023-03-04T09:11:53.073Z,7.50
2023-03-04T09:14:24.417Z,7.70
2023-03-04T09:16:53.292Z,7.80
2023-03-04T09:19:22.041Z,7.80
2023-03-04T09:21:50.732Z,7.80
2023-03-04T09:24:20.597Z,7.60
2023-03-04T09:26:51.972Z,7.50
2023-03-04T09:29:22.303Z,7.50
2023-03-04T09:31:51.504Z,7.60
2023-03-04T09:34:20.579Z,7.80
2023-03-04T09:36:49.179Z,7.90
2023-03-04T09:39:17.769Z,8.00
2023-03-04T09:41:50.021Z,8.20
2023-03-04T09:44:27.074Z,8.50
2023-03-04T09:46:58.672Z,8.60
2023-03-04T09:49:28.626Z,8.50
2023-03-04T09:52:03.379Z,8.50
2023-03-04T09:54:45.303Z,8.50
2023-03-04T09:57:24.271Z,8.40
2023-03-04T10:00:12.558Z,8.20
2023-03-04T10:02:53.041Z,8.10
2023-03-04T10:05:25.487Z,7.90
2023-03-04T10:07:59.302Z,7.60
2023-03-04T10:10:33.249Z,7.50
2023-03-04T10:13:04.119Z,7.50
2023-03-04T10:15:39.478Z,7.60
2023-03-04T10:18:20.371Z,7.70
2023-03-04T10:20:55.413Z,7.80
2023-03-04T10:23:27.164Z,7.90
2023-03-04T10:25:56.920Z,7.90
2023-03-04T10:28:28.002Z,7.80
2023-03-04T10:31:03.993Z,7.90
2023-03-04T10:33:35.828Z,8.00
2023-03-04T10:36:07.879Z,8.30
2023-03-04T10:38:38.298Z,8.40
2023-03-04T10:41:14.911Z,8.40
2023-03-04T10:43:46.732Z,8.30
2023-03-04T10:46:17.192Z,8.40
2023-03-04T10:48:46.294Z,8.40
2023-03-04T10:51:20.659Z,8.30
2023-03-04T10:53:51.859Z,8.10
2023-03-04T10:56:35.580Z,7.90
2023-03-04T10:59:30.659Z,7.80
2023-03-04T11:02:03.234Z,7.60
2023-03-04T11:04:41.674Z,7.80
2023-03-04T11:07:16.338Z,8.10
2023-03-04T11:09:46.481Z,8.50
2023-03-04T11:12:18.177Z,9.10
2023-03-04T11:14:50.456Z,9.50
2023-03-04T11:17:26.563Z,9.30
2023-03-04T11:20:05.318Z,8.90
2023-03-04T11:22:34.447Z,8.60
2023-03-04T11:25:07.793Z,8.10
2023-03-04T11:27:43.810Z,7.90
2023-03-04T11:30:27.128Z,7.70
2023-03-04T11:33:07.178Z,7.60
2023-03-04T11:35:45.380Z,7.40
2023-03-04T11:38:28.832Z,7.50
2023-03-04T11:41:02.924Z,7.80
2023-03-04T11:43:35.860Z,8.00
2023-03-04T11:46:26.914Z,8.20
2023-03-04T11:49:08.499Z,8.30
2023-03-04T11:51:42.799Z,8.30
2023-03-04T11:54:25.909Z,8.20
2023-03-04T11:57:02.928Z,8.00
2023-03-04T12:00:03.895Z,7.50
2023-03-04T12:02:39.642Z,7.20
2023-03-04T12:05:30.794Z,7.10
2023-03-04T12:08:33.676Z,7.10
2023-03-04T12:11:13.803Z,7.10
2023-03-04T12:14:03.401Z,7.40
2023-03-04T12:16:58.167Z,7.40
2023-03-04T12:19:43.321Z,7.50
2023-03-04T12:22:32.167Z,7.70
2023-03-04T12:25:31.661Z,7.90
2023-03-04T12:28:16.185Z,7.90
2023-03-04T12:31:02.281Z,8.10
2023-03-04T12:33:44.387Z,8.30
2023-03-04T12:36:19.309Z,8.50
2023-03-04T12:39:17.143Z,8.70
2023-03-04T12:41:53.482Z,8.90
2023-03-04T12:44:23.561Z,9.00
2023-03-04T12:47:11.822Z,8.80
2023-03-04T12:49:52.107Z,8.60
2023-03-04T12:52:34.837Z,8.30
2023-03-04T12:55:11.492Z,8.20
2023-03-04T12:57:44.731Z,8.20
2023-03-04T13:00:25.173Z,8.20
2023-03-04T13:03:04.428Z,8.20
2023-03-04T13:05:53.816Z,8.10
2023-03-04T13:08:38.722Z,8.00
2023-03-04T13:11:58.492Z,7.90
2023-03-04T13:14:42.456Z,7.90
2023-03-04T13:17:46.000Z,8.00
2023-03-04T13:20:25.311Z,8.10
2023-03-04T13:22:58.239Z,8.30
2023-03-04T13:25:46.439Z,8.40
2023-03-04T13:28:27.804Z,8.60
2023-03-04T13:31:24.391Z,8.60
2023-03-04T13:33:59.377Z,8.70
2023-03-04T13:36:37.211Z,8.50
2023-03-04T13:39:28.513Z,8.40
2023-03-04T13:42:10.090Z,8.30
2023-03-04T13:45:31.287Z,8.30
2023-03-04T13:48:06.864Z,8.30
2023-03-04T13:50:39.988Z,8.40
2023-03-04T13:53:41.310Z,8.30
2023-03-04T13:56:28.834Z,8.30
2023-03-04T13:59:16.530Z,8.30
2023-03-04T14:02:00.108Z,8.30
2023-03-04T14:04:40.033Z,8.30
2023-03-04T14:07:21.098Z,8.30
2023-03-04T14:09:58.073Z,8.40
2023-03-04T14:12:28.727Z,8.40
2023-03-04T14:14:59.667Z,8.50
2023-03-04T14:17:32.329Z,8.50
2023-03-04T14:20:01.757Z,8.60
2023-03-04T14:22:33.361Z,8.60
2023-03-04T14:25:03.913Z,8.70
2023-03-04T14:27:36.315Z,8.60
2023-03-04T14:30:07.653Z,8.50
2023-03-04T14:32:38.077Z,8.40
2023-03-04T14:35:19.604Z,8.20
2023-03-04T14:37:55.041Z,8.30
2023-03-04T14:40:26.844Z,8.30
2023-03-04T14:42:59.504Z,8.40
2023-03-04T14:45:29.081Z,8.30
2023-03-04T14:48:02.774Z,8.20
2023-03-04T14:50:31.510Z,8.10
2023-03-04T14:53:16.645Z,8.00
2023-03-04T14:55:59.850Z,7.90
2023-03-04T14:58:29.898Z,7.80
2023-03-04T15:01:17.559Z,7.70
2023-03-04T15:03:57.060Z,7.60
2023-03-04T15:06:27.516Z,7.60
2023-03-04T15:08:59.402Z,7.60
2023-03-04T15:11:30.560Z,7.60
2023-03-04T15:14:00.677Z,7.60
2023-03-04T15:16:50.762Z,7.60
2023-03-04T15:19:28.240Z,7.50
2023-03-04T15:22:05.269Z,7.60
2023-03-04T15:24:34.279Z,7.70
2023-03-04T15:27:04.258Z,7.70
2023-03-04T15:29:33.050Z,7.70
2023-03-04T15:32:01.779Z,7.70
2023-03-04T15:34:31.929Z,7.80
2023-03-04T15:37:04.000Z,7.90
2023-03-04T15:39:32.664Z,8.10
2023-03-04T15:42:02.481Z,8.10
2023-03-04T15:44:31.113Z,8.00
2023-03-04T15:46:59.780Z,7.80
2023-03-04T15:49:29.871Z,7.70
2023-03-04T15:51:59.918Z,7.60
2023-03-04T15:54:30.243Z,7.50
2023-03-04T15:57:00.668Z,7.50
2023-03-04T15:59:29.591Z,7.40
2023-03-04T16:01:58.228Z,7.50
2023-03-04T16:04:27.101Z,7.50
2023-03-04T16:06:59.238Z,7.40
2023-03-04T16:09:29.225Z,7.40
2023-03-04T16:12:01.855Z,7.30
2023-03-04T16:14:30.489Z,7.30
2023-03-04T16:16:59.214Z,7.30
2023-03-04T16:19:27.844Z,7.20
2023-03-04T16:21:56.647Z,7.20
2023-03-04T16:24:25.402Z,7.20
2023-03-04T16:26:55.351Z,7.20
2023-03-04T16:29:23.950Z,7.10
2023-03-04T16:31:55.119Z,7.10
2023-03-04T16:34:23.838Z,7.00
2023-03-04T16:36:52.666Z,7.00
2023-03-04T16:39:23.886Z,7.00
2023-03-04T16:41:53.416Z,7.00
2023-03-04T16:44:23.515Z,6.90
2023-03-04T16:46:52.142Z,6.90
2023-03-04T16:49:20.934Z,6.80
2023-03-04T16:51:51.687Z,6.70
2023-03-04T16:54:27.855Z,6.70
2023-03-04T16:56:56.485Z,6.60
2023-03-04T16:59:27.250Z,6.50
2023-03-04T17:01:56.662Z,6.30
2023-03-04T17:04:25.649Z,6.30
2023-03-04T17:06:54.284Z,6.20
2023-03-04T17:09:23.024Z,6.20
2023-03-04T17:11:53.108Z,6.20
2023-03-04T17:14:21.735Z,6.10
2023-03-04T17:16:51.933Z,6.10
2023-03-04T17:19:20.576Z,6.10
2023-03-04T17:21:49.235Z,6.10
2023-03-04T17:24:17.938Z,6.10
2023-03-04T17:26:46.670Z,6.10
2023-03-04T17:29:15.389Z,6.10
2023-03-04T17:31:48.423Z,6.10
2023-03-04T17:34:20.648Z,6.00
2023-03-04T17:36:49.335Z,6.00
2023-03-04T17:39:18.049Z,5.90
2023-03-04T17:41:50.764Z,5.80
2023-03-04T17:44:19.989Z,5.80
2023-03-04T17:46:50.029Z,5.80
2023-03-04T17:49:20.524Z,5.80
2023-03-04T17:51:49.944Z,5.70
2023-03-04T17:54:21.257Z,5.60
2023-03-04T17:56:53.190Z,5.60
2023-03-04T17:59:25.963Z,5.60
2023-03-04T18:01:54.681Z,5.50
2023-03-04T18:04:25.174Z,5.50
2023-03-04T18:06:53.907Z,5.50
2023-03-04T18:09:29.601Z,5.50
2023-03-04T18:11:59.483Z,5.50
2023-03-04T18:14:30.944Z,5.50
2023-03-04T18:16:59.890Z,5.50
2023-03-04T18:19:30.147Z,5.40
2023-03-04T18:21:59.334Z,5.40
2023-03-04T18:24:30.060Z,5.40
2023-03-04T18:27:01.956Z,5.40
2023-03-04T18:29:30.923Z,5.40
2023-03-04T18:32:07.515Z,5.40
2023-03-04T18:34:40.672Z,5.40
2023-03-04T18:37:09.669Z,5.40
2023-03-04T18:39:41.531Z,5.30
2023-03-04T18:42:10.642Z,5.30
2023-03-04T18:44:41.796Z,5.30
2023-03-04T18:47:11.788Z,5.30
2023-03-04T18:49:45.929Z,5.30
2023-03-04T18:52:16.836Z,5.30
2023-03-04T18:54:45.736Z,5.20
2023-03-04T18:57:17.008Z,5.30
2023-03-04T18:59:50.384Z,5.30
2023-03-04T19:02:24.196Z,5.20
2023-03-04T19:04:55.908Z,5.20
2023-03-04T19:07:24.815Z,5.20
2023-03-04T19:09:53.893Z,5.20
2023-03-04T19:12:22.562Z,5.20
2023-03-04T19:14:51.369Z,5.20
2023-03-04T19:17:20.510Z,5.20
2023-03-04T19:19:51.251Z,5.20
2023-03-04T19:25:07.809Z,5.20
2023-03-04T19:27:43.554Z,5.20
2023-03-04T19:30:16.632Z,5.20
2023-03-04T19:32:49.462Z,5.20
2023-03-04T19:35:24.202Z,5.20
2023-03-04T19:38:00.500Z,5.20
2023-03-04T19:40:34.470Z,5.20
2023-03-04T19:43:07.230Z,5.20
2023-03-04T19:45:40.585Z,5.10
2023-03-04T19:48:10.674Z,5.10
2023-03-04T19:50:53.592Z,5.00
2023-03-04T19:53:28.665Z,5.00
2023-03-04T19:56:07.146Z,4.90
2023-03-04T19:58:36.565Z,4.90
2023-03-04T20:01:22.633Z,4.80
2023-03-04T20:03:58.687Z,4.80
2023-03-04T20:06:44.926Z,4.80
2023-03-04T20:09:24.632Z,4.80
2023-03-04T20:12:04.314Z,4.80
2023-03-04T20:14:44.236Z,4.80
2023-03-04T20:17:15.799Z,4.80
2023-03-04T20:19:52.353Z,4.70
2023-03-04T20:22:27.277Z,4.70
2023-03-04T20:25:11.211Z,4.70
2023-03-04T20:27:47.557Z,4.70
2023-03-04T20:30:17.173Z,4.70
2023-03-04T20:32:46.382Z,4.70
2023-03-04T20:35:15.123Z,4.70
2023-03-04T20:37:50.241Z,4.70
2023-03-04T20:40:26.283Z,4.70
2023-03-04T20:43:06.294Z,4.70
2023-03-04T20:45:37.366Z,4.60
2023-03-04T20:48:23.312Z,4.60
2023-03-04T20:50:53.937Z,4.50
2023-03-04T20:53:24.281Z,4.30
2023-03-04T20:56:22.554Z,4.30
2023-03-04T20:58:58.544Z,4.20
2023-03-04T21:01:44.656Z,4.20
2023-03-04T21:04:13.663Z,4.20
2023-03-04T21:06:43.716Z,4.10
2023-03-04T21:09:20.045Z,4.10
2023-03-04T21:11:53.829Z,4.00
2023-03-04T21:14:25.845Z,3.80
2023-03-04T21:16:56.457Z,3.70
2023-03-04T21:19:27.539Z,3.70
2023-03-04T21:21:57.372Z,3.60
2023-03-04T21:27:18.310Z,3.60
2023-03-04T21:29:49.728Z,3.60
2023-03-04T21:32:27.964Z,3.60
2023-03-04T21:35:03.750Z,3.60
2023-03-04T21:37:32.902Z,3.60
2023-03-04T21:40:02.577Z,3.50
2023-03-04T21:42:33.155Z,3.50
2023-03-04T21:45:02.358Z,3.60
2023-03-04T21:47:33.416Z,3.50
2023-03-04T21:50:10.803Z,3.50
2023-03-04T21:52:58.303Z,3.60
2023-03-04T21:55:27.580Z,3.60
2023-03-04T21:58:11.879Z,3.70
2023-03-04T22:00:53.345Z,3.70
2023-03-04T22:03:29.169Z,3.70
2023-03-04T22:06:01.128Z,3.80
2023-03-04T22:08:30.280Z,3.80
2023-03-04T22:11:03.905Z,3.80
2023-03-04T22:13:39.416Z,3.90
2023-03-04T22:16:10.810Z,3.90
2023-03-04T22:18:41.019Z,3.90
2023-03-04T22:21:23.817Z,3.90
2023-03-04T22:23:56.805Z,3.90
2023-03-04T22:26:32.184Z,3.90
2023-03-04T22:29:11.002Z,3.90
2023-03-04T22:31:45.640Z,3.90
2023-03-04T22:34:17.681Z,3.90
2023-03-04T22:36:54.076Z,3.90
2023-03-04T22:39:25.987Z,3.90
2023-03-04T22:41:56.906Z,3.80
2023-03-04T22:44:29.556Z,3.80
2023-03-04T22:47:00.367Z,3.80
2023-03-04T22:49:45.969Z,3.80
2023-03-04T22:52:29.641Z,3.80
2023-03-04T22:55:01.853Z,3.80
2023-03-04T22:57:43.626Z,3.80
2023-03-04T23:00:23.008Z,3.90
2023-03-04T23:02:58.303Z,3.80
2023-03-04T23:05:30.226Z,3.80
2023-03-04T23:08:00.965Z,3.80
2023-03-04T23:10:31.759Z,3.80
2023-03-04T23:13:08.734Z,3.80
2023-03-04T23:15:49.486Z,3.80
2023-03-04T23:18:24.865Z,3.80
2023-03-04T23:21:11.091Z,3.80
2023-03-04T23:23:53.248Z,3.80
2023-03-04T23:26:28.968Z,3.80
2023-03-04T23:29:03.349Z,3.80
2023-03-04T23:31:46.171Z,3.90
2023-03-04T23:34:17.675Z,3.90
2023-03-04T23:36:47.242Z,3.90
2023-03-04T23:39:20.498Z,3.80
2023-03-04T23:41:49.605Z,3.80
2023-03-04T23:44:18.937Z,3.80
2023-03-04T23:46:49.590Z,3.80
2023-03-04T23:49:19.089Z,3.80
2023-03-04T23:51:51.175Z,3.80
2023-03-04T23:54:24.171Z,3.90
2023-03-04T23:57:02.057Z,3.90
2023-03-04T23:59:34.371Z,3.90
